Aberdeen, Pennsylvania
Current Conditions -  °F | °C
As of 12:56 PM on Sunday 21 Dec 2014 (Local Time) from KMDT Reporting Station
Broken Clouds Broken Clouds  
Wind Chill: 29°   Ceiling: 2900
Heat Index: 34°   Visibility: 10mi
Dew Point: 21°   Wind: 6mph
Humidity: 59%   Direction: 40°NE
Pressure: 30.32"   Gusts: NA
Location:  40.1674°N, 76.6045°W
Report Text: KMDT 211756Z 04005KT 10SM BKN029 BKN080 01/M06 A3032 RMK AO2 SLP272 T00111061 10017 21039 58010 $
Loading
Personal Weather Stations






























Interactive Weather Map New forecast layout! Learn more

10-Day Weather Forecast

Advertisements
Track Severe Weather on mobile